AAL9 KIDA-MMUN
Flight info
| Callsign | AAL9 |
|---|---|
| Flight time | N/A |
| Altitude | 33000 |
| Route | BPI DCT OCS J52 FQF/N0454F350 J52 LAA J168 SPS DCT SBI A766 KEHLI UA770 BETAS DCT VOMAR VOMAR1A |
| Aircraft | B738/M-SABDFGLRVWY/LB2 |
Departure
| Time | 2026-04-12 18:32 |
|---|---|
| Airport | Idaho Falls Regional Airport (KIDA) |
Arrival
| Time | N/A |
|---|---|
| Airport | Cancún International Airport (MMUN) |
| Time | Latitude | Longitude | Altitude | Speed | Heading |
|---|---|---|---|---|---|
| 2026-04-12 18:13 | 43.51584 | -112.06794 | 4737 ft | 0 kts | 127° |
| 2026-04-12 18:25 | 43.51585 | -112.06798 | 4737 ft | 2 kts | 127° |
| 2026-04-12 18:25 | 43.51595 | -112.06814 | 4737 ft | 2 kts | 127° |
| 2026-04-12 18:25 | 43.51604 | -112.06831 | 4737 ft | 2 kts | 128° |
| 2026-04-12 18:26 | 43.51610 | -112.06841 | 4737 ft | 2 kts | 121° |
| 2026-04-12 18:26 | 43.51613 | -112.06861 | 4737 ft | 2 kts | 79° |
| 2026-04-12 18:26 | 43.51606 | -112.06879 | 4737 ft | 1 kts | 45° |
| 2026-04-12 18:26 | 43.51601 | -112.06885 | 4737 ft | 1 kts | 35° |
| 2026-04-12 18:27 | 43.51599 | -112.06887 | 4737 ft | 0 kts | 37° |
| 2026-04-12 18:28 | 43.51602 | -112.06884 | 4737 ft | 3 kts | 37° |
| 2026-04-12 18:28 | 43.51649 | -112.06834 | 4737 ft | 13 kts | 39° |
| 2026-04-12 18:29 | 43.51737 | -112.06736 | 4737 ft | 16 kts | 38° |
| 2026-04-12 18:29 | 43.51829 | -112.06640 | 4736 ft | 16 kts | 38° |
| 2026-04-12 18:29 | 43.51917 | -112.06546 | 4736 ft | 15 kts | 36° |
| 2026-04-12 18:29 | 43.52000 | -112.06456 | 4736 ft | 14 kts | 39° |
| 2026-04-12 18:30 | 43.52078 | -112.06373 | 4735 ft | 13 kts | 38° |
| 2026-04-12 18:30 | 43.52150 | -112.06370 | 4735 ft | 11 kts | 315° |
| 2026-04-12 18:30 | 43.52184 | -112.06439 | 4736 ft | 6 kts | 268° |
| 2026-04-12 18:30 | 43.52164 | -112.06473 | 4736 ft | 0 kts | 217° |
| 2026-04-12 18:31 | 43.52132 | -112.06505 | 4736 ft | 27 kts | 218° |
| 2026-04-12 18:31 | 43.51803 | -112.06858 | 4737 ft | 92 kts | 218° |
| 2026-04-12 18:31 | 43.51134 | -112.07577 | 4744 ft | 148 kts | 218° |
| 2026-04-12 18:31 | 43.50219 | -112.08553 | 4939 ft | 177 kts | 217° |
| 2026-04-12 18:32 | 43.49238 | -112.09654 | 5482 ft | 185 kts | 209° |
| 2026-04-12 18:32 | 43.48050 | -112.10170 | 6107 ft | 185 kts | 176° |
| 2026-04-12 18:32 | 43.46819 | -112.09644 | 6619 ft | 191 kts | 148° |
| 2026-04-12 18:32 | 43.45822 | -112.08377 | 7000 ft | 205 kts | 128° |
| 2026-04-12 18:33 | 43.45081 | -112.06647 | 7396 ft | 219 kts | 122° |
| 2026-04-12 18:33 | 43.44318 | -112.04748 | 7728 ft | 237 kts | 123° |
| 2026-04-12 18:33 | 43.43470 | -112.02743 | 8192 ft | 250 kts | 124° |
| 2026-04-12 18:33 | 43.42558 | -112.00639 | 8733 ft | 261 kts | 125° |
| 2026-04-12 18:34 | 43.41612 | -111.98457 | 9213 ft | 274 kts | 125° |
| 2026-04-12 18:34 | 43.40621 | -111.96167 | 9857 ft | 280 kts | 126° |
| 2026-04-12 18:34 | 43.39638 | -111.93894 | 10479 ft | 287 kts | 126° |
| 2026-04-12 18:34 | 43.38588 | -111.91479 | 10888 ft | 302 kts | 126° |
| 2026-04-12 18:35 | 43.37479 | -111.88930 | 11318 ft | 318 kts | 126° |
| 2026-04-12 18:35 | 43.36326 | -111.86282 | 11686 ft | 334 kts | 125° |
| 2026-04-12 18:35 | 43.35099 | -111.83460 | 12090 ft | 350 kts | 125° |
| 2026-04-12 18:35 | 43.33839 | -111.80560 | 12618 ft | 361 kts | 125° |
| 2026-04-12 18:36 | 43.32977 | -111.78571 | 13054 ft | 365 kts | 125° |
| 2026-04-12 18:36 | 43.32556 | -111.77602 | 13296 ft | 367 kts | 125° |
| 2026-04-12 18:36 | 43.32120 | -111.76597 | 13566 ft | 368 kts | 125° |
| 2026-04-12 18:37 | 43.27236 | -111.65363 | 16197 ft | 383 kts | 125° |
| 2026-04-12 18:37 | 43.25866 | -111.62228 | 16956 ft | 385 kts | 125° |
| 2026-04-12 18:37 | 43.24495 | -111.59100 | 17578 ft | 390 kts | 125° |
| 2026-04-12 18:37 | 43.23090 | -111.55894 | 18268 ft | 393 kts | 126° |
| 2026-04-12 18:38 | 43.21697 | -111.52716 | 18998 ft | 395 kts | 126° |
| 2026-04-12 18:38 | 43.20276 | -111.49484 | 19632 ft | 399 kts | 126° |
| 2026-04-12 18:38 | 43.18847 | -111.46240 | 20307 ft | 401 kts | 126° |
| 2026-04-12 18:38 | 43.17399 | -111.42951 | 20976 ft | 404 kts | 126° |
| 2026-04-12 18:39 | 43.15952 | -111.39667 | 21568 ft | 407 kts | 126° |
| 2026-04-12 18:39 | 43.14498 | -111.36372 | 22134 ft | 411 kts | 126° |
| 2026-04-12 18:39 | 43.13010 | -111.32997 | 22794 ft | 413 kts | 126° |
| 2026-04-12 18:39 | 43.11534 | -111.29658 | 23419 ft | 414 kts | 126° |
| 2026-04-12 18:40 | 43.10027 | -111.26251 | 23992 ft | 417 kts | 126° |
| 2026-04-12 18:40 | 43.08523 | -111.22863 | 24418 ft | 423 kts | 126° |
| 2026-04-12 18:40 | 43.07006 | -111.19451 | 24890 ft | 427 kts | 127° |
| 2026-04-12 18:40 | 43.05455 | -111.15964 | 25305 ft | 432 kts | 127° |
| 2026-04-12 18:41 | 43.03888 | -111.12444 | 25814 ft | 435 kts | 127° |
| 2026-04-12 18:41 | 43.02322 | -111.08927 | 26226 ft | 439 kts | 127° |
| 2026-04-12 18:41 | 43.00716 | -111.05328 | 26601 ft | 444 kts | 127° |
| 2026-04-12 18:41 | 42.99116 | -111.01749 | 27015 ft | 448 kts | 127° |
| 2026-04-12 18:42 | 42.97501 | -110.98138 | 27427 ft | 451 kts | 127° |
| 2026-04-12 18:42 | 42.95867 | -110.94488 | 27825 ft | 454 kts | 127° |
| 2026-04-12 18:42 | 42.94217 | -110.90806 | 28272 ft | 456 kts | 128° |
| 2026-04-12 18:43 | 42.89274 | -110.79781 | 29936 ft | 452 kts | 128° |
| 2026-04-12 18:43 | 42.87645 | -110.76155 | 30419 ft | 452 kts | 128° |
| 2026-04-12 18:43 | 42.86010 | -110.72523 | 30895 ft | 451 kts | 129° |
| 2026-04-12 18:44 | 42.84370 | -110.68883 | 31374 ft | 449 kts | 129° |
| 2026-04-12 18:44 | 42.82748 | -110.65290 | 31889 ft | 447 kts | 129° |
| 2026-04-12 18:44 | 42.81124 | -110.61697 | 32416 ft | 444 kts | 129° |
| 2026-04-12 18:44 | 42.79535 | -110.58183 | 32854 ft | 441 kts | 129° |
| 2026-04-12 18:45 | 42.77913 | -110.54609 | 32897 ft | 443 kts | 129° |
| 2026-04-12 18:45 | 42.74704 | -110.47541 | 32893 ft | 439 kts | 129° |
| 2026-04-12 18:46 | 42.71489 | -110.40488 | 32905 ft | 441 kts | 130° |
| 2026-04-12 18:46 | 42.68251 | -110.33409 | 32911 ft | 441 kts | 130° |
| 2026-04-12 18:47 | 42.65035 | -110.26376 | 32928 ft | 440 kts | 130° |
| 2026-04-12 18:47 | 42.61801 | -110.19331 | 32931 ft | 441 kts | 131° |
| 2026-04-12 18:48 | 42.58428 | -110.12450 | 32944 ft | 433 kts | 136° |
| 2026-04-12 18:48 | 42.54330 | -110.06625 | 32945 ft | 422 kts | 146° |
| 2026-04-12 18:49 | 42.49892 | -110.01578 | 32938 ft | 418 kts | 149° |
| 2026-04-12 18:49 | 42.45377 | -109.96637 | 32929 ft | 420 kts | 149° |
| 2026-04-12 18:50 | 42.40863 | -109.91665 | 32929 ft | 420 kts | 149° |
| 2026-04-12 18:50 | 42.36328 | -109.86628 | 32928 ft | 419 kts | 148° |
| 2026-04-12 18:51 | 42.31845 | -109.81632 | 32930 ft | 421 kts | 148° |
| 2026-04-12 18:51 | 42.27319 | -109.76593 | 32930 ft | 422 kts | 148° |
| 2026-04-12 18:52 | 42.22824 | -109.71586 | 32935 ft | 423 kts | 148° |
| 2026-04-12 18:52 | 42.18291 | -109.66550 | 32935 ft | 420 kts | 149° |
| 2026-04-12 18:53 | 42.13796 | -109.61563 | 32937 ft | 422 kts | 149° |
| 2026-04-12 18:53 | 42.09255 | -109.56538 | 32933 ft | 423 kts | 149° |
| 2026-04-12 18:54 | 42.04721 | -109.51530 | 32940 ft | 423 kts | 149° |
| 2026-04-12 18:54 | 42.00179 | -109.46518 | 32949 ft | 425 kts | 149° |
| 2026-04-12 18:55 | 41.95615 | -109.41492 | 32947 ft | 423 kts | 148° |
| 2026-04-12 18:55 | 41.91049 | -109.36478 | 32946 ft | 426 kts | 148° |
| 2026-04-12 18:56 | 41.88006 | -109.33141 | 32952 ft | 427 kts | 149° |
| 2026-04-12 18:56 | 41.81921 | -109.26477 | 32958 ft | 424 kts | 149° |
| 2026-04-12 18:57 | 41.77339 | -109.21471 | 32955 ft | 426 kts | 149° |
| 2026-04-12 18:57 | 41.72745 | -109.16466 | 32952 ft | 428 kts | 149° |
| 2026-04-12 18:58 | 41.68114 | -109.11429 | 32955 ft | 428 kts | 149° |
| 2026-04-12 18:58 | 41.63519 | -109.06435 | 32957 ft | 429 kts | 149° |
| 2026-04-12 18:59 | 41.59195 | -109.00893 | 32969 ft | 444 kts | 137° |
| 2026-04-12 18:59 | 41.55725 | -108.93960 | 32965 ft | 454 kts | 128° |
| 2026-04-12 19:00 | 41.52714 | -108.86590 | 32967 ft | 457 kts | 126° |
| 2026-04-12 19:00 | 41.49799 | -108.79084 | 32981 ft | 456 kts | 126° |
| 2026-04-12 19:01 | 41.47336 | -108.72804 | 32982 ft | 458 kts | 126° |
| 2026-04-12 19:01 | 41.43863 | -108.64113 | 32977 ft | 457 kts | 126° |
| 2026-04-12 19:02 | 41.40879 | -108.56735 | 32981 ft | 456 kts | 126° |
| 2026-04-12 19:02 | 41.37862 | -108.49338 | 32981 ft | 456 kts | 126° |
| 2026-04-12 19:03 | 41.34824 | -108.41912 | 32979 ft | 456 kts | 126° |
| 2026-04-12 19:03 | 41.31811 | -108.34563 | 32982 ft | 456 kts | 127° |
| 2026-04-12 19:04 | 41.28771 | -108.27171 | 32979 ft | 456 kts | 127° |
| 2026-04-12 19:04 | 41.25717 | -108.19765 | 32980 ft | 457 kts | 127° |
| 2026-04-12 19:05 | 41.22672 | -108.12395 | 32982 ft | 457 kts | 126° |
| 2026-04-12 19:05 | 41.19622 | -108.05032 | 32982 ft | 458 kts | 126° |
| 2026-04-12 19:06 | 41.16576 | -107.97694 | 32975 ft | 455 kts | 126° |
| 2026-04-12 19:06 | 41.13518 | -107.90344 | 32974 ft | 455 kts | 126° |
| 2026-04-12 19:07 | 41.10462 | -107.83023 | 32991 ft | 454 kts | 126° |
| 2026-04-12 19:07 | 41.07398 | -107.75706 | 32995 ft | 456 kts | 126° |
| 2026-04-12 19:08 | 41.04322 | -107.68373 | 33003 ft | 455 kts | 126° |
| 2026-04-12 19:08 | 41.01263 | -107.61089 | 33011 ft | 454 kts | 126° |
| 2026-04-12 19:09 | 40.98176 | -107.53768 | 33021 ft | 455 kts | 126° |
| 2026-04-12 19:09 | 40.95094 | -107.46471 | 33022 ft | 455 kts | 126° |
| 2026-04-12 19:10 | 40.92013 | -107.39193 | 33019 ft | 454 kts | 126° |
| 2026-04-12 19:10 | 40.88959 | -107.31993 | 33040 ft | 454 kts | 127° |
| 2026-04-12 19:11 | 40.85838 | -107.24662 | 33049 ft | 454 kts | 127° |
| 2026-04-12 19:11 | 40.82784 | -107.17502 | 33072 ft | 455 kts | 126° |
| 2026-04-12 19:12 | 40.79690 | -107.10266 | 33083 ft | 454 kts | 126° |
| 2026-04-12 19:12 | 40.76598 | -107.03048 | 33092 ft | 453 kts | 126° |
| 2026-04-12 19:13 | 40.73496 | -106.95830 | 33089 ft | 454 kts | 126° |
| 2026-04-12 19:13 | 40.70393 | -106.88628 | 33087 ft | 455 kts | 126° |
| 2026-04-12 19:14 | 40.67291 | -106.81447 | 33075 ft | 454 kts | 126° |
| 2026-04-12 19:14 | 40.64174 | -106.74241 | 33077 ft | 453 kts | 126° |
| 2026-04-12 19:15 | 40.61044 | -106.67025 | 33080 ft | 454 kts | 126° |
| 2026-04-12 19:15 | 40.57926 | -106.59860 | 33091 ft | 455 kts | 126° |
| 2026-04-12 19:16 | 40.54764 | -106.52614 | 33107 ft | 456 kts | 126° |
| 2026-04-12 19:16 | 40.51635 | -106.45447 | 33107 ft | 457 kts | 126° |
| 2026-04-12 19:17 | 40.48473 | -106.38222 | 33106 ft | 457 kts | 126° |
| 2026-04-12 19:17 | 40.45303 | -106.30996 | 33111 ft | 455 kts | 126° |
| 2026-04-12 19:18 | 40.42149 | -106.23827 | 33098 ft | 456 kts | 126° |
| 2026-04-12 19:18 | 40.38966 | -106.16605 | 33109 ft | 458 kts | 126° |
| 2026-04-12 19:19 | 40.35787 | -106.09417 | 33097 ft | 457 kts | 126° |
| 2026-04-12 19:19 | 40.32616 | -106.02254 | 33091 ft | 456 kts | 126° |
| 2026-04-12 19:20 | 40.29414 | -105.95052 | 33076 ft | 457 kts | 126° |
| 2026-04-12 19:20 | 40.26238 | -105.87916 | 33101 ft | 456 kts | 126° |
| 2026-04-12 19:21 | 40.23059 | -105.80789 | 33089 ft | 455 kts | 126° |
| 2026-04-12 19:21 | 40.19854 | -105.73626 | 33082 ft | 458 kts | 126° |
| 2026-04-12 19:22 | 40.16646 | -105.66472 | 33064 ft | 458 kts | 126° |
| 2026-04-12 19:22 | 40.13412 | -105.59280 | 33077 ft | 458 kts | 126° |
| 2026-04-12 19:23 | 40.10196 | -105.52142 | 33064 ft | 460 kts | 126° |
| 2026-04-12 19:23 | 40.06972 | -105.45000 | 33038 ft | 461 kts | 126° |
| 2026-04-12 19:24 | 40.03724 | -105.37817 | 33012 ft | 461 kts | 126° |
| 2026-04-12 19:24 | 40.00472 | -105.30643 | 32966 ft | 459 kts | 127° |
| 2026-04-12 19:25 | 39.97205 | -105.23462 | 32941 ft | 460 kts | 127° |
| 2026-04-12 19:25 | 39.93962 | -105.16349 | 32943 ft | 458 kts | 127° |
| 2026-04-12 19:26 | 39.90707 | -105.09223 | 32927 ft | 459 kts | 127° |
| 2026-04-12 19:26 | 39.87442 | -105.02090 | 32935 ft | 460 kts | 127° |
| 2026-04-12 19:27 | 39.84170 | -104.94956 | 32925 ft | 463 kts | 127° |
| 2026-04-12 19:27 | 39.80862 | -104.87766 | 32933 ft | 462 kts | 127° |
| 2026-04-12 19:28 | 39.77596 | -104.80669 | 32932 ft | 462 kts | 127° |
| 2026-04-12 19:28 | 39.74273 | -104.73480 | 32934 ft | 464 kts | 127° |
| 2026-04-12 19:29 | 39.70945 | -104.66373 | 32938 ft | 463 kts | 128° |
| 2026-04-12 19:29 | 39.67068 | -104.59777 | 32948 ft | 457 kts | 139° |
| 2026-04-12 19:30 | 39.62526 | -104.54147 | 32949 ft | 450 kts | 144° |
| 2026-04-12 19:30 | 39.57834 | -104.48833 | 32953 ft | 451 kts | 144° |
| 2026-04-12 19:31 | 39.53082 | -104.43474 | 32978 ft | 452 kts | 144° |
| 2026-04-12 19:31 | 39.48371 | -104.38112 | 32991 ft | 453 kts | 144° |
| 2026-04-12 19:32 | 39.43671 | -104.32727 | 33006 ft | 452 kts | 144° |
| 2026-04-12 19:32 | 39.38989 | -104.27342 | 33030 ft | 453 kts | 144° |
| 2026-04-12 19:33 | 39.34266 | -104.21918 | 33029 ft | 455 kts | 144° |
| 2026-04-12 19:33 | 39.29556 | -104.16510 | 33021 ft | 454 kts | 144° |
| 2026-04-12 19:34 | 39.24825 | -104.11089 | 33023 ft | 455 kts | 144° |
| 2026-04-12 19:34 | 39.20085 | -104.05668 | 33021 ft | 456 kts | 144° |
| 2026-04-12 19:35 | 39.15365 | -104.00277 | 33017 ft | 457 kts | 144° |
| 2026-04-12 19:35 | 39.10609 | -103.94855 | 33027 ft | 457 kts | 144° |
| 2026-04-12 19:36 | 39.05861 | -103.89455 | 33018 ft | 456 kts | 144° |
| 2026-04-12 19:36 | 39.01101 | -103.84049 | 33018 ft | 458 kts | 143° |
| 2026-04-12 19:37 | 38.96329 | -103.78637 | 33020 ft | 457 kts | 144° |
| 2026-04-12 19:37 | 38.91537 | -103.73218 | 33015 ft | 460 kts | 143° |
| 2026-04-12 19:38 | 38.86748 | -103.67808 | 33008 ft | 461 kts | 143° |
| 2026-04-12 19:38 | 38.81992 | -103.62360 | 33001 ft | 463 kts | 140° |
| 2026-04-12 19:39 | 38.77604 | -103.56297 | 32988 ft | 467 kts | 135° |
| 2026-04-12 19:39 | 38.73468 | -103.49918 | 32983 ft | 469 kts | 133° |
| 2026-04-12 19:40 | 38.69311 | -103.43420 | 32977 ft | 470 kts | 134° |
| 2026-04-12 19:40 | 38.65160 | -103.37008 | 32970 ft | 468 kts | 134° |
| 2026-04-12 19:41 | 38.60979 | -103.30628 | 32965 ft | 469 kts | 135° |
| 2026-04-12 19:41 | 38.59553 | -103.28465 | 32965 ft | 468 kts | 135° |
| 2026-04-12 19:42 | 38.57429 | -103.25246 | 32446 ft | 467 kts | 135° |
| 2026-04-12 19:42 | 38.55527 | -103.22373 | 32825 ft | 468 kts | 135° |
| 2026-04-12 19:43 | 38.54268 | -103.20474 | 33677 ft | 470 kts | 135° |
| 2026-04-12 19:43 | 38.52131 | -103.17262 | 33307 ft | 476 kts | 135° |
| 2026-04-12 19:43 | 38.50007 | -103.14066 | 32989 ft | 469 kts | 135° |
| 2026-04-12 19:44 | 38.45828 | -103.07778 | 32957 ft | 471 kts | 135° |
| 2026-04-12 19:44 | 38.41593 | -103.01427 | 32956 ft | 470 kts | 135° |
| 2026-04-12 19:45 | 38.37358 | -102.95082 | 32958 ft | 469 kts | 135° |
| 2026-04-12 19:45 | 38.33150 | -102.88795 | 32946 ft | 469 kts | 134° |
| 2026-04-12 19:46 | 38.28898 | -102.82454 | 32934 ft | 469 kts | 135° |
| 2026-04-12 19:46 | 38.24679 | -102.76176 | 32927 ft | 469 kts | 134° |
| 2026-04-12 19:47 | 38.20408 | -102.69936 | 32921 ft | 468 kts | 137° |
| 2026-04-12 19:47 | 38.15715 | -102.64326 | 32920 ft | 463 kts | 144° |
| 2026-04-12 19:48 | 38.10741 | -102.59152 | 32919 ft | 461 kts | 145° |
| 2026-04-12 19:48 | 38.05727 | -102.54059 | 32915 ft | 462 kts | 145° |
| 2026-04-12 19:49 | 38.00716 | -102.48943 | 32913 ft | 461 kts | 145° |
| 2026-04-12 19:49 | 37.95763 | -102.43851 | 32918 ft | 462 kts | 145° |
| 2026-04-12 19:50 | 37.90785 | -102.38719 | 32930 ft | 463 kts | 144° |
| 2026-04-12 19:50 | 37.85762 | -102.33540 | 32932 ft | 462 kts | 145° |
| 2026-04-12 19:51 | 37.80799 | -102.28419 | 32930 ft | 461 kts | 145° |
| 2026-04-12 19:51 | 37.75835 | -102.23310 | 32932 ft | 461 kts | 145° |
| 2026-04-12 19:52 | 37.70870 | -102.18207 | 32927 ft | 461 kts | 145° |
| 2026-04-12 19:52 | 37.65914 | -102.13124 | 32931 ft | 463 kts | 145° |
| 2026-04-12 19:53 | 37.60918 | -102.08010 | 32934 ft | 461 kts | 145° |
| 2026-04-12 19:53 | 37.55958 | -102.02940 | 32928 ft | 462 kts | 145° |
| 2026-04-12 19:54 | 37.50968 | -101.97849 | 32930 ft | 462 kts | 145° |
| 2026-04-12 19:54 | 37.45997 | -101.92786 | 32922 ft | 461 kts | 145° |
| 2026-04-12 19:55 | 37.41013 | -101.87721 | 32924 ft | 462 kts | 145° |
| 2026-04-12 19:55 | 37.36023 | -101.82657 | 32926 ft | 461 kts | 145° |
| 2026-04-12 19:56 | 37.31037 | -101.77606 | 32926 ft | 460 kts | 145° |
| 2026-04-12 19:56 | 37.26071 | -101.72585 | 32929 ft | 462 kts | 145° |
| 2026-04-12 19:57 | 37.21071 | -101.67537 | 32934 ft | 462 kts | 145° |
| 2026-04-12 19:57 | 37.16077 | -101.62503 | 32926 ft | 462 kts | 145° |
| 2026-04-12 19:58 | 37.11074 | -101.57471 | 32922 ft | 463 kts | 145° |
| 2026-04-12 19:58 | 37.06062 | -101.52439 | 32920 ft | 461 kts | 145° |
| 2026-04-12 19:59 | 37.01061 | -101.47426 | 32928 ft | 462 kts | 145° |
| 2026-04-12 19:59 | 36.96053 | -101.42414 | 32926 ft | 462 kts | 145° |
| 2026-04-12 20:00 | 36.91030 | -101.37399 | 32933 ft | 462 kts | 145° |
| 2026-04-12 20:00 | 36.86017 | -101.32400 | 32927 ft | 459 kts | 146° |
| 2026-04-12 20:01 | 36.81021 | -101.27427 | 32924 ft | 461 kts | 146° |
| 2026-04-12 20:01 | 36.76031 | -101.22469 | 32927 ft | 459 kts | 146° |
| 2026-04-12 20:02 | 36.71029 | -101.17508 | 32924 ft | 461 kts | 146° |
| 2026-04-12 20:02 | 36.66031 | -101.12558 | 32921 ft | 460 kts | 146° |
| 2026-04-12 20:03 | 36.61017 | -101.07602 | 32930 ft | 461 kts | 146° |
| 2026-04-12 20:03 | 36.56004 | -101.02653 | 32926 ft | 461 kts | 146° |
| 2026-04-12 20:04 | 36.51013 | -100.97736 | 32933 ft | 459 kts | 146° |
| 2026-04-12 20:04 | 36.45999 | -100.92802 | 32930 ft | 459 kts | 146° |
| 2026-04-12 20:05 | 36.41002 | -100.87897 | 32931 ft | 459 kts | 146° |
| 2026-04-12 20:05 | 36.36019 | -100.83013 | 32926 ft | 458 kts | 146° |
| 2026-04-12 20:06 | 36.31037 | -100.78138 | 32929 ft | 458 kts | 146° |
| 2026-04-12 20:06 | 36.26041 | -100.73260 | 32936 ft | 458 kts | 146° |
| 2026-04-12 20:07 | 36.21039 | -100.68380 | 32926 ft | 458 kts | 146° |
| 2026-04-12 20:07 | 36.16038 | -100.63509 | 32932 ft | 456 kts | 146° |
| 2026-04-12 20:08 | 36.11058 | -100.58667 | 32941 ft | 457 kts | 146° |
| 2026-04-12 20:08 | 36.06058 | -100.53816 | 32934 ft | 457 kts | 146° |
| 2026-04-12 20:09 | 36.01072 | -100.48987 | 32919 ft | 456 kts | 146° |
| 2026-04-12 20:09 | 35.96127 | -100.44205 | 32915 ft | 456 kts | 146° |
| 2026-04-12 20:10 | 35.91138 | -100.39387 | 32931 ft | 456 kts | 146° |
| 2026-04-12 20:10 | 35.86148 | -100.34577 | 32927 ft | 455 kts | 146° |
| 2026-04-12 20:11 | 35.81184 | -100.29798 | 32928 ft | 455 kts | 147° |
| 2026-04-12 20:11 | 35.76215 | -100.25024 | 32932 ft | 453 kts | 147° |
| 2026-04-12 20:12 | 35.71225 | -100.20239 | 32933 ft | 451 kts | 147° |
| 2026-04-12 20:12 | 35.66298 | -100.15522 | 32933 ft | 453 kts | 146° |
| 2026-04-12 20:13 | 35.61346 | -100.10785 | 32934 ft | 450 kts | 147° |
| 2026-04-12 20:14 | 35.53919 | -100.03702 | 32929 ft | 451 kts | 146° |
| 2026-04-12 20:14 | 35.48962 | -99.98982 | 32931 ft | 450 kts | 147° |
| 2026-04-12 20:15 | 35.44049 | -99.94308 | 32931 ft | 450 kts | 147° |
| 2026-04-12 20:15 | 35.40789 | -99.91212 | 32924 ft | 449 kts | 147° |
| 2026-04-12 20:15 | 35.38294 | -99.88841 | 32761 ft | 447 kts | 147° |
| 2026-04-12 20:16 | 35.35835 | -99.86510 | 32955 ft | 451 kts | 147° |
| 2026-04-12 20:16 | 35.30839 | -99.81789 | 32953 ft | 453 kts | 147° |
| 2026-04-12 20:17 | 35.25865 | -99.77086 | 32947 ft | 453 kts | 147° |
| 2026-04-12 20:17 | 35.20912 | -99.72409 | 32941 ft | 452 kts | 147° |
| 2026-04-12 20:18 | 35.15926 | -99.67711 | 32938 ft | 452 kts | 147° |
| 2026-04-12 20:18 | 35.10965 | -99.63044 | 32935 ft | 452 kts | 147° |
| 2026-04-12 20:19 | 35.05964 | -99.58347 | 32932 ft | 453 kts | 147° |
| 2026-04-12 20:19 | 35.00981 | -99.53676 | 32928 ft | 452 kts | 147° |
| 2026-04-12 20:20 | 34.96009 | -99.49020 | 32925 ft | 452 kts | 147° |
| 2026-04-12 20:20 | 34.91016 | -99.44351 | 32920 ft | 452 kts | 147° |
| 2026-04-12 20:21 | 34.87700 | -99.41254 | 32917 ft | 452 kts | 147° |